sensor_id;sensor_type;location;lat;lon;timestamp;temperature;humidity
1179;DHT22;578;48.408;10.004;2024-02-15T00:00:52;7.50;99.90
1179;DHT22;578;48.408;10.004;2024-02-15T00:02:53;7.50;99.90
1179;DHT22;578;48.408;10.004;2024-02-15T00:04:56;7.60;99.90
1179;DHT22;578;48.408;10.004;2024-02-15T00:06:58;7.60;99.90
1179;DHT22;578;48.408;10.004;2024-02-15T00:09:00;7.60;99.90
1179;DHT22;578;48.408;10.004;2024-02-15T00:11:03;7.50;99.90
1179;DHT22;578;48.408;10.004;2024-02-15T00:13:05;7.50;99.90
1179;DHT22;578;48.408;10.004;2024-02-15T00:15:07;7.40;99.90
1179;DHT22;578;48.408;10.004;2024-02-15T00:17:11;7.40;99.90
1179;DHT22;578;48.408;10.004;2024-02-15T00:19:12;7.30;99.90
1179;DHT22;578;48.408;10.004;2024-02-15T00:21:15;7.30;99.90
1179;DHT22;578;48.408;10.004;2024-02-15T00:23:16;7.20;99.90
1179;DHT22;578;48.408;10.004;2024-02-15T00:25:18;7.20;99.90
1179;DHT22;578;48.408;10.004;2024-02-15T00:27:21;7.10;99.90
1179;DHT22;578;48.408;10.004;2024-02-15T00:29:23;7.00;99.90
1179;DHT22;578;48.408;10.004;2024-02-15T00:31:27;7.00;99.90
1179;DHT22;578;48.408;10.004;2024-02-15T00:33:28;7.00;99.90
1179;DHT22;578;48.408;10.004;2024-02-15T00:35:30;6.90;99.90
1179;DHT22;578;48.408;10.004;2024-02-15T00:37:32;6.90;99.90
1179;DHT22;578;48.408;10.004;2024-02-15T00:39:34;6.90;99.90
1179;DHT22;578;48.408;10.004;2024-02-15T00:41:36;6.80;99.90
1179;DHT22;578;48.408;10.004;2024-02-15T00:43:39;6.70;99.90
1179;DHT22;578;48.408;10.004;2024-02-15T00:45:41;6.70;99.90
1179;DHT22;578;48.408;10.004;2024-02-15T00:47:42;6.60;99.90
1179;DHT22;578;48.408;10.004;2024-02-15T00:49:44;6.50;99.90
1179;DHT22;578;48.408;10.004;2024-02-15T00:51:46;6.50;99.90
1179;DHT22;578;48.408;10.004;2024-02-15T00:53:48;6.50;99.90
1179;DHT22;578;48.408;10.004;2024-02-15T00:55:51;6.40;99.90
1179;DHT22;578;48.408;10.004;2024-02-15T00:57:52;6.30;99.90
1179;DHT22;578;48.408;10.004;2024-02-15T00:59:55;6.30;99.90
1179;DHT22;578;48.408;10.004;2024-02-15T01:01:57;6.30;99.90
1179;DHT22;578;48.408;10.004;2024-02-15T01:04:00;6.30;99.90
1179;DHT22;578;48.408;10.004;2024-02-15T01:06:02;6.30;99.90
1179;DHT22;578;48.408;10.004;2024-02-15T01:08:04;6.30;99.90
1179;DHT22;578;48.408;10.004;2024-02-15T01:10:06;6.30;99.90
1179;DHT22;578;48.408;10.004;2024-02-15T01:12:08;6.30;99.90
1179;DHT22;578;48.408;10.004;2024-02-15T01:14:10;6.20;99.90
1179;DHT22;578;48.408;10.004;2024-02-15T01:16:13;6.20;99.90
1179;DHT22;578;48.408;10.004;2024-02-15T01:18:16;6.20;99.90
1179;DHT22;578;48.408;10.004;2024-02-15T01:20:17;6.30;99.90
1179;DHT22;578;48.408;10.004;2024-02-15T01:22:21;6.30;99.90
1179;DHT22;578;48.408;10.004;2024-02-15T01:24:24;6.30;99.90
1179;DHT22;578;48.408;10.004;2024-02-15T01:26:26;6.30;99.90
1179;DHT22;578;48.408;10.004;2024-02-15T01:28:28;6.30;99.90
1179;DHT22;578;48.408;10.004;2024-02-15T01:30:29;6.30;99.90
1179;DHT22;578;48.408;10.004;2024-02-15T01:32:34;6.30;99.90
1179;DHT22;578;48.408;10.004;2024-02-15T01:34:35;6.30;99.90
1179;DHT22;578;48.408;10.004;2024-02-15T01:36:37;6.20;99.90
1179;DHT22;578;48.408;10.004;2024-02-15T01:38:39;6.20;99.90
1179;DHT22;578;48.408;10.004;2024-02-15T01:40:41;6.30;99.90
1179;DHT22;578;48.408;10.004;2024-02-15T01:42:45;6.30;99.90
1179;DHT22;578;48.408;10.004;2024-02-15T01:44:45;6.20;99.90
1179;DHT22;578;48.408;10.004;2024-02-15T01:46:50;6.20;99.90
1179;DHT22;578;48.408;10.004;2024-02-15T01:48:55;6.10;99.90
1179;DHT22;578;48.408;10.004;2024-02-15T01:50:58;6.00;99.90
1179;DHT22;578;48.408;10.004;2024-02-15T01:52:59;6.00;99.90
1179;DHT22;578;48.408;10.004;2024-02-15T01:55:03;5.80;99.90
1179;DHT22;578;48.408;10.004;2024-02-15T01:57:09;5.80;99.90
1179;DHT22;578;48.408;10.004;2024-02-15T01:59:13;5.70;99.90
1179;DHT22;578;48.408;10.004;2024-02-15T02:01:16;5.80;99.90
1179;DHT22;578;48.408;10.004;2024-02-15T02:03:20;5.70;99.90
1179;DHT22;578;48.408;10.004;2024-02-15T02:05:23;5.60;99.90
1179;DHT22;578;48.408;10.004;2024-02-15T02:07:24;5.60;99.90
1179;DHT22;578;48.408;10.004;2024-02-15T02:09:26;5.60;99.90
1179;DHT22;578;48.408;10.004;2024-02-15T02:11:28;5.50;99.90
1179;DHT22;578;48.408;10.004;2024-02-15T02:13:31;5.50;99.90
1179;DHT22;578;48.408;10.004;2024-02-15T02:15:33;5.40;99.90
1179;DHT22;578;48.408;10.004;2024-02-15T02:17:34;5.40;99.90
1179;DHT22;578;48.408;10.004;2024-02-15T02:19:35;5.40;99.90
1179;DHT22;578;48.408;10.004;2024-02-15T02:21:40;5.40;99.90
1179;DHT22;578;48.408;10.004;2024-02-15T02:23:43;5.40;99.90
1179;DHT22;578;48.408;10.004;2024-02-15T02:25:49;5.30;99.90
1179;DHT22;578;48.408;10.004;2024-02-15T02:27:51;5.30;99.90
1179;DHT22;578;48.408;10.004;2024-02-15T02:29:52;5.20;99.90
1179;DHT22;578;48.408;10.004;2024-02-15T02:31:54;5.20;99.90
1179;DHT22;578;48.408;10.004;2024-02-15T02:33:56;5.20;99.90
1179;DHT22;578;48.408;10.004;2024-02-15T02:35:58;5.10;99.90
1179;DHT22;578;48.408;10.004;2024-02-15T02:38:02;5.00;99.90
1179;DHT22;578;48.408;10.004;2024-02-15T02:40:04;4.90;99.90
1179;DHT22;578;48.408;10.004;2024-02-15T02:42:09;4.90;99.90
1179;DHT22;578;48.408;10.004;2024-02-15T02:44:10;4.80;99.90
1179;DHT22;578;48.408;10.004;2024-02-15T02:46:12;4.80;99.90
1179;DHT22;578;48.408;10.004;2024-02-15T02:48:14;4.90;99.90
1179;DHT22;578;48.408;10.004;2024-02-15T02:50:18;4.80;99.90
1179;DHT22;578;48.408;10.004;2024-02-15T02:52:20;4.70;99.90
1179;DHT22;578;48.408;10.004;2024-02-15T02:54:21;4.60;99.90
1179;DHT22;578;48.408;10.004;2024-02-15T02:56:22;4.50;99.90
1179;DHT22;578;48.408;10.004;2024-02-15T02:58:26;4.50;99.90
1179;DHT22;578;48.408;10.004;2024-02-15T03:00:26;4.50;99.90
1179;DHT22;578;48.408;10.004;2024-02-15T03:02:28;4.50;99.90
1179;DHT22;578;48.408;10.004;2024-02-15T03:04:31;4.50;99.90
1179;DHT22;578;48.408;10.004;2024-02-15T03:06:33;4.50;99.90
1179;DHT22;578;48.408;10.004;2024-02-15T03:08:34;4.40;99.90
1179;DHT22;578;48.408;10.004;2024-02-15T03:10:36;4.40;99.90
1179;DHT22;578;48.408;10.004;2024-02-15T03:12:39;4.50;99.90
1179;DHT22;578;48.408;10.004;2024-02-15T03:14:41;4.50;99.90
1179;DHT22;578;48.408;10.004;2024-02-15T03:16:42;4.50;99.90
1179;DHT22;578;48.408;10.004;2024-02-15T03:18:44;4.60;99.90
1179;DHT22;578;48.408;10.004;2024-02-15T03:20:46;4.70;99.90
1179;DHT22;578;48.408;10.004;2024-02-15T03:22:53;4.70;99.90
1179;DHT22;578;48.408;10.004;2024-02-15T03:24:55;4.80;99.90
1179;DHT22;578;48.408;10.004;2024-02-15T03:26:56;4.90;99.90
1179;DHT22;578;48.408;10.004;2024-02-15T03:28:58;5.00;99.90
1179;DHT22;578;48.408;10.004;2024-02-15T03:31:01;5.00;99.90
1179;DHT22;578;48.408;10.004;2024-02-15T03:33:03;5.10;99.90
1179;DHT22;578;48.408;10.004;2024-02-15T03:35:06;5.10;99.90
1179;DHT22;578;48.408;10.004;2024-02-15T03:37:08;5.20;99.90
1179;DHT22;578;48.408;10.004;2024-02-15T03:39:10;5.20;99.90
1179;DHT22;578;48.408;10.004;2024-02-15T03:41:12;5.20;99.90
1179;DHT22;578;48.408;10.004;2024-02-15T03:43:15;5.20;99.90
1179;DHT22;578;48.408;10.004;2024-02-15T03:45:16;5.30;99.90
1179;DHT22;578;48.408;10.004;2024-02-15T03:47:19;5.20;99.90
1179;DHT22;578;48.408;10.004;2024-02-15T03:49:21;5.30;99.90
1179;DHT22;578;48.408;10.004;2024-02-15T03:51:23;5.30;99.90
1179;DHT22;578;48.408;10.004;2024-02-15T03:53:25;5.40;99.90
1179;DHT22;578;48.408;10.004;2024-02-15T03:55:28;5.30;99.90
1179;DHT22;578;48.408;10.004;2024-02-15T03:57:31;5.30;99.90
1179;DHT22;578;48.408;10.004;2024-02-15T03:59:34;5.30;99.90
1179;DHT22;578;48.408;10.004;2024-02-15T04:01:36;5.20;99.90
1179;DHT22;578;48.408;10.004;2024-02-15T04:03:39;5.20;99.90
1179;DHT22;578;48.408;10.004;2024-02-15T04:05:41;5.00;99.90
1179;DHT22;578;48.408;10.004;2024-02-15T04:07:43;4.90;99.90
1179;DHT22;578;48.408;10.004;2024-02-15T04:09:44;4.80;99.90
1179;DHT22;578;48.408;10.004;2024-02-15T04:11:46;4.90;99.90
1179;DHT22;578;48.408;10.004;2024-02-15T04:13:53;4.80;99.90
1179;DHT22;578;48.408;10.004;2024-02-15T04:15:54;4.80;99.90
1179;DHT22;578;48.408;10.004;2024-02-15T04:17:55;4.80;99.90
1179;DHT22;578;48.408;10.004;2024-02-15T04:19:59;4.70;99.90
1179;DHT22;578;48.408;10.004;2024-02-15T04:22:01;4.80;99.90
1179;DHT22;578;48.408;10.004;2024-02-15T04:24:07;4.80;99.90
1179;DHT22;578;48.408;10.004;2024-02-15T04:26:09;4.80;99.90
1179;DHT22;578;48.408;10.004;2024-02-15T04:28:14;4.80;99.90
1179;DHT22;578;48.408;10.004;2024-02-15T04:30:15;4.80;99.90
1179;DHT22;578;48.408;10.004;2024-02-15T04:32:17;4.80;99.90
1179;DHT22;578;48.408;10.004;2024-02-15T04:34:19;4.70;99.90
1179;DHT22;578;48.408;10.004;2024-02-15T04:36:22;4.90;99.90
1179;DHT22;578;48.408;10.004;2024-02-15T04:38:25;4.90;99.90
1179;DHT22;578;48.408;10.004;2024-02-15T04:40:27;4.80;99.90
1179;DHT22;578;48.408;10.004;2024-02-15T04:42:27;4.90;99.90
1179;DHT22;578;48.408;10.004;2024-02-15T04:44:30;4.90;99.90
1179;DHT22;578;48.408;10.004;2024-02-15T04:46:35;4.90;99.90
1179;DHT22;578;48.408;10.004;2024-02-15T04:48:37;4.80;99.90
1179;DHT22;578;48.408;10.004;2024-02-15T04:50:38;4.80;99.90
1179;DHT22;578;48.408;10.004;2024-02-15T04:52:41;4.90;99.90
1179;DHT22;578;48.408;10.004;2024-02-15T04:54:45;4.90;99.90
1179;DHT22;578;48.408;10.004;2024-02-15T04:56:48;4.80;99.90
1179;DHT22;578;48.408;10.004;2024-02-15T04:58:53;4.90;99.90
1179;DHT22;578;48.408;10.004;2024-02-15T05:00:55;4.90;99.90
1179;DHT22;578;48.408;10.004;2024-02-15T05:03:00;4.80;99.90
1179;DHT22;578;48.408;10.004;2024-02-15T05:05:01;4.80;99.90
1179;DHT22;578;48.408;10.004;2024-02-15T05:07:03;4.80;99.90
1179;DHT22;578;48.408;10.004;2024-02-15T05:09:06;4.80;99.90
1179;DHT22;578;48.408;10.004;2024-02-15T05:11:11;4.90;99.90
1179;DHT22;578;48.408;10.004;2024-02-15T05:13:17;4.80;99.90
1179;DHT22;578;48.408;10.004;2024-02-15T05:15:19;4.80;99.90
1179;DHT22;578;48.408;10.004;2024-02-15T05:17:23;4.80;99.90
1179;DHT22;578;48.408;10.004;2024-02-15T05:19:25;4.80;99.90
1179;DHT22;578;48.408;10.004;2024-02-15T05:21:26;4.80;99.90
1179;DHT22;578;48.408;10.004;2024-02-15T05:23:28;4.60;99.90
1179;DHT22;578;48.408;10.004;2024-02-15T05:25:30;4.50;99.90
1179;DHT22;578;48.408;10.004;2024-02-15T05:27:33;4.60;99.90
1179;DHT22;578;48.408;10.004;2024-02-15T05:29:34;4.50;99.90
1179;DHT22;578;48.408;10.004;2024-02-15T05:31:36;4.40;99.90
1179;DHT22;578;48.408;10.004;2024-02-15T05:33:40;4.40;99.90
1179;DHT22;578;48.408;10.004;2024-02-15T05:35:44;4.30;99.90
1179;DHT22;578;48.408;10.004;2024-02-15T05:37:50;4.30;99.90
1179;DHT22;578;48.408;10.004;2024-02-15T05:39:53;4.20;99.90
1179;DHT22;578;48.408;10.004;2024-02-15T05:41:57;4.20;99.90
1179;DHT22;578;48.408;10.004;2024-02-15T05:44:01;4.10;99.90
1179;DHT22;578;48.408;10.004;2024-02-15T05:46:05;4.00;99.90
1179;DHT22;578;48.408;10.004;2024-02-15T05:48:08;3.90;99.90
1179;DHT22;578;48.408;10.004;2024-02-15T05:50:10;3.80;99.90
1179;DHT22;578;48.408;10.004;2024-02-15T05:52:11;3.80;99.90
1179;DHT22;578;48.408;10.004;2024-02-15T05:54:13;3.80;99.90
1179;DHT22;578;48.408;10.004;2024-02-15T05:56:15;3.90;99.90
1179;DHT22;578;48.408;10.004;2024-02-15T05:58:18;3.80;99.90
1179;DHT22;578;48.408;10.004;2024-02-15T06:00:21;3.70;99.90
1179;DHT22;578;48.408;10.004;2024-02-15T06:02:23;3.70;99.90
1179;DHT22;578;48.408;10.004;2024-02-15T06:04:24;3.70;99.90
1179;DHT22;578;48.408;10.004;2024-02-15T06:06:26;3.70;99.90
1179;DHT22;578;48.408;10.004;2024-02-15T06:08:28;3.60;99.90
1179;DHT22;578;48.408;10.004;2024-02-15T06:10:31;3.70;99.90
1179;DHT22;578;48.408;10.004;2024-02-15T06:12:33;3.60;99.90
1179;DHT22;578;48.408;10.004;2024-02-15T06:14:35;3.50;99.90
1179;DHT22;578;48.408;10.004;2024-02-15T06:16:42;3.60;99.90
1179;DHT22;578;48.408;10.004;2024-02-15T06:18:44;3.60;99.90
1179;DHT22;578;48.408;10.004;2024-02-15T06:20:46;3.50;99.90
1179;DHT22;578;48.408;10.004;2024-02-15T06:22:50;3.40;99.90
1179;DHT22;578;48.408;10.004;2024-02-15T06:24:52;3.40;99.90
1179;DHT22;578;48.408;10.004;2024-02-15T06:26:54;3.40;99.90
1179;DHT22;578;48.408;10.004;2024-02-15T06:29:00;3.40;99.90
1179;DHT22;578;48.408;10.004;2024-02-15T06:31:21;3.40;99.90
1179;DHT22;578;48.408;10.004;2024-02-15T06:33:42;3.50;99.90
1179;DHT22;578;48.408;10.004;2024-02-15T06:36:04;3.50;99.90
1179;DHT22;578;48.408;10.004;2024-02-15T06:38:24;3.30;99.90
1179;DHT22;578;48.408;10.004;2024-02-15T06:40:43;3.40;99.90
1179;DHT22;578;48.408;10.004;2024-02-15T06:42:45;3.30;99.90
1179;DHT22;578;48.408;10.004;2024-02-15T06:44:48;3.20;99.90
1179;DHT22;578;48.408;10.004;2024-02-15T06:46:51;3.20;99.90
1179;DHT22;578;48.408;10.004;2024-02-15T06:48:52;3.30;99.90
1179;DHT22;578;48.408;10.004;2024-02-15T06:50:55;3.30;99.90
1179;DHT22;578;48.408;10.004;2024-02-15T06:52:57;3.20;99.90
1179;DHT22;578;48.408;10.004;2024-02-15T06:54:59;3.30;99.90
1179;DHT22;578;48.408;10.004;2024-02-15T06:57:01;3.30;99.90
1179;DHT22;578;48.408;10.004;2024-02-15T06:59:03;3.30;99.90
1179;DHT22;578;48.408;10.004;2024-02-15T07:01:04;3.30;99.90
1179;DHT22;578;48.408;10.004;2024-02-15T07:03:08;3.30;99.90
1179;DHT22;578;48.408;10.004;2024-02-15T07:05:11;3.40;99.90
1179;DHT22;578;48.408;10.004;2024-02-15T07:07:13;3.40;99.90
1179;DHT22;578;48.408;10.004;2024-02-15T07:09:17;3.50;99.90
1179;DHT22;578;48.408;10.004;2024-02-15T07:11:20;3.50;99.90
1179;DHT22;578;48.408;10.004;2024-02-15T07:13:22;3.50;99.90
1179;DHT22;578;48.408;10.004;2024-02-15T07:15:24;3.50;99.90
1179;DHT22;578;48.408;10.004;2024-02-15T07:17:26;3.60;99.90
1179;DHT22;578;48.408;10.004;2024-02-15T07:19:29;3.60;99.90
1179;DHT22;578;48.408;10.004;2024-02-15T07:21:33;3.60;99.90
1179;DHT22;578;48.408;10.004;2024-02-15T07:23:34;3.70;99.90
1179;DHT22;578;48.408;10.004;2024-02-15T07:25:36;3.80;99.90
1179;DHT22;578;48.408;10.004;2024-02-15T07:27:39;3.80;99.90
1179;DHT22;578;48.408;10.004;2024-02-15T07:29:41;3.80;99.90
1179;DHT22;578;48.408;10.004;2024-02-15T07:31:43;3.80;99.90
1179;DHT22;578;48.408;10.004;2024-02-15T07:33:45;3.80;99.90
1179;DHT22;578;48.408;10.004;2024-02-15T07:35:47;3.90;99.90
1179;DHT22;578;48.408;10.004;2024-02-15T07:37:52;3.90;99.90
1179;DHT22;578;48.408;10.004;2024-02-15T07:39:55;3.90;99.90
1179;DHT22;578;48.408;10.004;2024-02-15T07:41:58;3.90;99.90
1179;DHT22;578;48.408;10.004;2024-02-15T07:43:59;4.00;99.90
1179;DHT22;578;48.408;10.004;2024-02-15T07:46:01;4.10;99.90
1179;DHT22;578;48.408;10.004;2024-02-15T07:48:05;4.10;99.90
1179;DHT22;578;48.408;10.004;2024-02-15T07:50:07;4.30;99.90
1179;DHT22;578;48.408;10.004;2024-02-15T07:52:11;4.50;99.90
1179;DHT22;578;48.408;10.004;2024-02-15T07:54:13;4.70;99.90
1179;DHT22;578;48.408;10.004;2024-02-15T07:56:16;4.90;99.90
1179;DHT22;578;48.408;10.004;2024-02-15T07:58:18;5.10;99.90
1179;DHT22;578;48.408;10.004;2024-02-15T08:00:20;5.40;99.90
1179;DHT22;578;48.408;10.004;2024-02-15T08:02:21;5.80;99.90
1179;DHT22;578;48.408;10.004;2024-02-15T08:04:24;6.20;99.90
1179;DHT22;578;48.408;10.004;2024-02-15T08:06:26;6.70;99.90
1179;DHT22;578;48.408;10.004;2024-02-15T08:08:30;7.10;99.90
1179;DHT22;578;48.408;10.004;2024-02-15T08:10:31;7.30;99.90
1179;DHT22;578;48.408;10.004;2024-02-15T08:12:34;7.40;99.90
1179;DHT22;578;48.408;10.004;2024-02-15T08:14:35;7.90;99.90
1179;DHT22;578;48.408;10.004;2024-02-15T08:16:37;8.00;99.90
1179;DHT22;578;48.408;10.004;2024-02-15T08:18:40;8.10;99.90
1179;DHT22;578;48.408;10.004;2024-02-15T08:20:42;8.20;99.90
1179;DHT22;578;48.408;10.004;2024-02-15T08:22:45;8.50;99.90
1179;DHT22;578;48.408;10.004;2024-02-15T08:24:48;8.70;99.90
1179;DHT22;578;48.408;10.004;2024-02-15T08:26:50;8.80;99.90
1179;DHT22;578;48.408;10.004;2024-02-15T08:28:53;9.00;99.90
1179;DHT22;578;48.408;10.004;2024-02-15T08:30:56;9.50;99.90
1179;DHT22;578;48.408;10.004;2024-02-15T08:32:57;9.60;99.90
1179;DHT22;578;48.408;10.004;2024-02-15T08:34:59;9.70;99.90
1179;DHT22;578;48.408;10.004;2024-02-15T08:37:01;9.60;99.90
1179;DHT22;578;48.408;10.004;2024-02-15T08:39:03;9.70;99.90
1179;DHT22;578;48.408;10.004;2024-02-15T08:41:06;9.90;99.90
1179;DHT22;578;48.408;10.004;2024-02-15T08:43:08;10.50;99.90
1179;DHT22;578;48.408;10.004;2024-02-15T08:45:11;10.40;99.90
1179;DHT22;578;48.408;10.004;2024-02-15T08:47:13;10.40;99.90
1179;DHT22;578;48.408;10.004;2024-02-15T08:49:14;10.50;99.90
1179;DHT22;578;48.408;10.004;2024-02-15T08:51:16;10.60;99.90
1179;DHT22;578;48.408;10.004;2024-02-15T08:53:19;10.70;99.90
1179;DHT22;578;48.408;10.004;2024-02-15T08:55:21;11.00;99.90
1179;DHT22;578;48.408;10.004;2024-02-15T08:57:28;11.00;99.90
1179;DHT22;578;48.408;10.004;2024-02-15T08:59:31;11.10;99.90
1179;DHT22;578;48.408;10.004;2024-02-15T09:01:33;11.20;99.90
1179;DHT22;578;48.408;10.004;2024-02-15T09:03:35;11.30;99.90
1179;DHT22;578;48.408;10.004;2024-02-15T09:05:37;11.40;99.90
1179;DHT22;578;48.408;10.004;2024-02-15T09:07:38;11.30;99.90
1179;DHT22;578;48.408;10.004;2024-02-15T09:09:41;11.30;99.90
1179;DHT22;578;48.408;10.004;2024-02-15T09:11:43;11.40;99.90
1179;DHT22;578;48.408;10.004;2024-02-15T09:13:46;11.40;99.90
1179;DHT22;578;48.408;10.004;2024-02-15T09:15:50;11.50;97.70
1179;DHT22;578;48.408;10.004;2024-02-15T09:17:52;11.60;96.30
1179;DHT22;578;48.408;10.004;2024-02-15T09:19:55;11.70;96.40
1179;DHT22;578;48.408;10.004;2024-02-15T09:21:57;11.80;96.10
1179;DHT22;578;48.408;10.004;2024-02-15T09:23:59;11.70;90.10
1179;DHT22;578;48.408;10.004;2024-02-15T09:26:01;11.60;93.20
1179;DHT22;578;48.408;10.004;2024-02-15T09:28:03;11.60;97.40
1179;DHT22;578;48.408;10.004;2024-02-15T09:30:07;12.00;94.50
1179;DHT22;578;48.408;10.004;2024-02-15T09:32:09;11.90;90.50
1179;DHT22;578;48.408;10.004;2024-02-15T09:34:11;11.90;90.60
1179;DHT22;578;48.408;10.004;2024-02-15T09:36:13;12.10;94.30
1179;DHT22;578;48.408;10.004;2024-02-15T09:38:17;12.20;90.80
1179;DHT22;578;48.408;10.004;2024-02-15T09:40:20;12.20;88.60
1179;DHT22;578;48.408;10.004;2024-02-15T09:42:21;12.30;87.00
1179;DHT22;578;48.408;10.004;2024-02-15T09:44:24;12.40;78.10
1179;DHT22;578;48.408;10.004;2024-02-15T09:46:29;12.50;73.20
1179;DHT22;578;48.408;10.004;2024-02-15T09:48:37;12.40;64.00
1179;DHT22;578;48.408;10.004;2024-02-15T09:50:42;12.20;78.70
1179;DHT22;578;48.408;10.004;2024-02-15T09:52:48;12.30;81.20
1179;DHT22;578;48.408;10.004;2024-02-15T09:54:51;12.40;73.20
1179;DHT22;578;48.408;10.004;2024-02-15T09:56:56;12.30;66.20
1179;DHT22;578;48.408;10.004;2024-02-15T09:58:59;12.20;75.30
1179;DHT22;578;48.408;10.004;2024-02-15T10:01:04;12.10;79.00
1179;DHT22;578;48.408;10.004;2024-02-15T10:03:12;11.90;72.40
1179;DHT22;578;48.408;10.004;2024-02-15T10:05:17;11.60;67.60
1179;DHT22;578;48.408;10.004;2024-02-15T10:07:19;11.50;82.70
1179;DHT22;578;48.408;10.004;2024-02-15T10:09:27;11.80;89.90
1179;DHT22;578;48.408;10.004;2024-02-15T10:11:28;11.80;77.00
1179;DHT22;578;48.408;10.004;2024-02-15T10:13:30;11.70;80.30
1179;DHT22;578;48.408;10.004;2024-02-15T10:15:33;11.70;80.70
1179;DHT22;578;48.408;10.004;2024-02-15T10:17:36;11.90;86.30
1179;DHT22;578;48.408;10.004;2024-02-15T10:19:39;12.00;82.00
1179;DHT22;578;48.408;10.004;2024-02-15T10:21:42;11.90;76.80
1179;DHT22;578;48.408;10.004;2024-02-15T10:23:43;11.60;70.70
1179;DHT22;578;48.408;10.004;2024-02-15T10:25:45;12.00;84.20
1179;DHT22;578;48.408;10.004;2024-02-15T10:27:46;12.00;75.20
1179;DHT22;578;48.408;10.004;2024-02-15T10:29:48;12.10;78.90
1179;DHT22;578;48.408;10.004;2024-02-15T10:31:54;12.10;79.60
1179;DHT22;578;48.408;10.004;2024-02-15T10:34:02;12.00;73.90
1179;DHT22;578;48.408;10.004;2024-02-15T10:36:10;12.00;79.10
1179;DHT22;578;48.408;10.004;2024-02-15T10:38:14;12.20;81.20
1179;DHT22;578;48.408;10.004;2024-02-15T10:40:18;12.20;84.40
1179;DHT22;578;48.408;10.004;2024-02-15T10:42:19;12.40;85.30
1179;DHT22;578;48.408;10.004;2024-02-15T10:44:22;12.40;84.70
1179;DHT22;578;48.408;10.004;2024-02-15T10:46:25;12.30;77.30
1179;DHT22;578;48.408;10.004;2024-02-15T10:48:26;12.50;85.40
1179;DHT22;578;48.408;10.004;2024-02-15T10:50:29;12.50;85.80
1179;DHT22;578;48.408;10.004;2024-02-15T10:52:32;12.30;81.90
1179;DHT22;578;48.408;10.004;2024-02-15T10:54:43;12.40;84.60
1179;DHT22;578;48.408;10.004;2024-02-15T10:56:49;12.30;82.50
1179;DHT22;578;48.408;10.004;2024-02-15T10:59:04;12.50;88.70
1179;DHT22;578;48.408;10.004;2024-02-15T11:01:13;12.60;89.30
1179;DHT22;578;48.408;10.004;2024-02-15T11:03:24;12.70;85.50
1179;DHT22;578;48.408;10.004;2024-02-15T11:05:27;12.80;90.10
1179;DHT22;578;48.408;10.004;2024-02-15T11:07:32;12.70;81.20
1179;DHT22;578;48.408;10.004;2024-02-15T11:09:34;12.60;80.00
1179;DHT22;578;48.408;10.004;2024-02-15T11:11:37;12.70;89.00
1179;DHT22;578;48.408;10.004;2024-02-15T11:13:40;12.70;88.90
1179;DHT22;578;48.408;10.004;2024-02-15T11:15:44;13.00;87.50
1179;DHT22;578;48.408;10.004;2024-02-15T11:17:48;13.10;89.80
1179;DHT22;578;48.408;10.004;2024-02-15T11:19:54;13.00;85.20
1179;DHT22;578;48.408;10.004;2024-02-15T11:21:57;13.00;86.40
1179;DHT22;578;48.408;10.004;2024-02-15T11:24:26;13.10;90.00
1179;DHT22;578;48.408;10.004;2024-02-15T11:26:44;13.30;90.10
1179;DHT22;578;48.408;10.004;2024-02-15T11:28:50;13.30;89.90
1179;DHT22;578;48.408;10.004;2024-02-15T11:30:51;13.40;89.20
1179;DHT22;578;48.408;10.004;2024-02-15T11:32:53;13.60;87.70
1179;DHT22;578;48.408;10.004;2024-02-15T11:35:02;13.60;84.60
1179;DHT22;578;48.408;10.004;2024-02-15T11:37:57;13.60;80.00
1179;DHT22;578;48.408;10.004;2024-02-15T11:40:04;13.60;82.20
1179;DHT22;578;48.408;10.004;2024-02-15T11:42:27;13.70;87.10
1179;DHT22;578;48.408;10.004;2024-02-15T11:44:30;13.60;82.60
1179;DHT22;578;48.408;10.004;2024-02-15T11:46:32;13.50;79.20
1179;DHT22;578;48.408;10.004;2024-02-15T11:48:36;13.40;74.30
1179;DHT22;578;48.408;10.004;2024-02-15T11:50:40;13.40;81.70
1179;DHT22;578;48.408;10.004;2024-02-15T11:52:42;13.40;78.30
1179;DHT22;578;48.408;10.004;2024-02-15T11:54:43;13.60;77.50
1179;DHT22;578;48.408;10.004;2024-02-15T11:56:53;13.50;71.90
1179;DHT22;578;48.408;10.004;2024-02-15T11:59:04;13.40;75.50
1179;DHT22;578;48.408;10.004;2024-02-15T12:01:07;13.50;81.20
1179;DHT22;578;48.408;10.004;2024-02-15T12:03:27;13.40;80.90
1179;DHT22;578;48.408;10.004;2024-02-15T12:05:48;13.50;83.70
1179;DHT22;578;48.408;10.004;2024-02-15T12:08:09;13.60;76.90
1179;DHT22;578;48.408;10.004;2024-02-15T12:10:29;13.50;83.50
1179;DHT22;578;48.408;10.004;2024-02-15T12:12:54;13.60;81.30
1179;DHT22;578;48.408;10.004;2024-02-15T12:15:13;13.80;83.00
1179;DHT22;578;48.408;10.004;2024-02-15T12:17:33;13.70;78.90
1179;DHT22;578;48.408;10.004;2024-02-15T12:19:53;13.80;82.00
1179;DHT22;578;48.408;10.004;2024-02-15T12:21:57;13.80;74.70
1179;DHT22;578;48.408;10.004;2024-02-15T12:23:58;13.80;75.30
1179;DHT22;578;48.408;10.004;2024-02-15T12:26:00;13.90;75.40
1179;DHT22;578;48.408;10.004;2024-02-15T12:28:05;13.80;68.60
1179;DHT22;578;48.408;10.004;2024-02-15T12:30:13;13.80;74.30
1179;DHT22;578;48.408;10.004;2024-02-15T12:32:20;14.00;77.50
1179;DHT22;578;48.408;10.004;2024-02-15T12:34:22;14.00;78.80
1179;DHT22;578;48.408;10.004;2024-02-15T12:36:23;14.00;70.00
1179;DHT22;578;48.408;10.004;2024-02-15T12:38:26;14.10;66.90
1179;DHT22;578;48.408;10.004;2024-02-15T12:40:31;14.00;72.50
1179;DHT22;578;48.408;10.004;2024-02-15T12:42:38;14.00;75.50
1179;DHT22;578;48.408;10.004;2024-02-15T12:44:43;14.00;64.40
1179;DHT22;578;48.408;10.004;2024-02-15T12:46:46;14.00;70.90
1179;DHT22;578;48.408;10.004;2024-02-15T12:48:48;14.00;64.20
1179;DHT22;578;48.408;10.004;2024-02-15T12:50:53;14.10;68.30
1179;DHT22;578;48.408;10.004;2024-02-15T12:52:55;14.10;67.00
1179;DHT22;578;48.408;10.004;2024-02-15T12:55:13;14.20;67.50
1179;DHT22;578;48.408;10.004;2024-02-15T12:57:15;14.30;62.20
1179;DHT22;578;48.408;10.004;2024-02-15T12:59:16;14.30;56.80
1179;DHT22;578;48.408;10.004;2024-02-15T13:01:21;14.30;57.00
1179;DHT22;578;48.408;10.004;2024-02-15T13:03:22;14.40;50.50
1179;DHT22;578;48.408;10.004;2024-02-15T13:05:25;14.30;55.90
1179;DHT22;578;48.408;10.004;2024-02-15T13:07:27;14.30;52.30
1179;DHT22;578;48.408;10.004;2024-02-15T13:09:29;14.40;51.70
1179;DHT22;578;48.408;10.004;2024-02-15T13:11:31;14.40;49.00
1179;DHT22;578;48.408;10.004;2024-02-15T13:13:34;14.50;48.30
1179;DHT22;578;48.408;10.004;2024-02-15T13:15:36;14.50;40.90
1179;DHT22;578;48.408;10.004;2024-02-15T13:17:39;14.50;44.10
1179;DHT22;578;48.408;10.004;2024-02-15T13:19:45;14.50;35.70
1179;DHT22;578;48.408;10.004;2024-02-15T13:21:48;14.50;37.10
1179;DHT22;578;48.408;10.004;2024-02-15T13:23:53;14.40;33.40
1179;DHT22;578;48.408;10.004;2024-02-15T13:25:55;14.40;37.50
1179;DHT22;578;48.408;10.004;2024-02-15T13:27:57;14.40;41.70
1179;DHT22;578;48.408;10.004;2024-02-15T13:29:59;14.40;44.40
1179;DHT22;578;48.408;10.004;2024-02-15T13:32:01;14.30;49.40
1179;DHT22;578;48.408;10.004;2024-02-15T13:34:04;14.40;50.30
1179;DHT22;578;48.408;10.004;2024-02-15T13:36:06;14.40;54.90